CheckWX is a tool to help pilots better visualize weather data.  It is not intended as a substitute for an official pre-flight weather briefing.

20:25:40 UTC

HUEN METAR
Entebbe International Airport
Kampala, Uganda
Current

26 mins ago

HUEN 202000Z 07002KT 9999 FEW021 FEW023CB 23/21 Q1016
Observed
Apr-20 @ 20:00 UTC
Wind
  • 070° at 2 KTS
Visibility
10,000+ meters
Flight Rules
VFR
Cloud Levels
  • Few at 2,100' AGL
  • Few at 2,300' AGL
Temperature
23°C / 73°F
Dewpoint
21°C / 70°F
Humidity
89%
Altimeter
30" Hg
Pressure
1015.92 hPa
Previous

56 mins ago

HUEN 201930Z 20006KT 9999 SCT020 FEW022CB BKN120 24/20 Q1015
Observed
Apr-20 @ 19:30 UTC
Wind
  • 200° at 6 KTS
Visibility
10,000+ meters
Flight Rules
VFR
Cloud Levels
  • Scattered at 2,000' AGL
  • Few at 2,200' AGL
  • Broken at 12,000' AGL
Temperature
24°C / 75°F
Dewpoint
20°C / 68°F
Humidity
78%
Altimeter
29.97" Hg
Pressure
1014.92 hPa
Previous

1 hour ago

HUEN 201900Z 27003KT 9999 SCT020 FEW022CB BKN120 23/21 Q1016
Observed
Apr-20 @ 19:00 UTC
Wind
  • 270° at 3 KTS
Visibility
10,000+ meters
Flight Rules
VFR
Cloud Levels
  • Scattered at 2,000' AGL
  • Few at 2,200' AGL
  • Broken at 12,000' AGL
Temperature
23°C / 73°F
Dewpoint
21°C / 70°F
Humidity
89%
Altimeter
30" Hg
Pressure
1015.92 hPa